sensor_id;sensor_type;location;lat;lon;timestamp;temperature;humidity
47660;DHT22;33403;43.608;1.458;2023-09-12T00:00:56;22.60;99.90
47660;DHT22;33403;43.608;1.458;2023-09-12T00:03:23;22.50;99.90
47660;DHT22;33403;43.608;1.458;2023-09-12T00:05:52;22.60;99.90
47660;DHT22;33403;43.608;1.458;2023-09-12T00:08:18;22.60;99.90
47660;DHT22;33403;43.608;1.458;2023-09-12T00:10:44;22.60;99.90
47660;DHT22;33403;43.608;1.458;2023-09-12T00:13:10;22.50;99.90
47660;DHT22;33403;43.608;1.458;2023-09-12T00:15:35;22.50;99.90
47660;DHT22;33403;43.608;1.458;2023-09-12T00:18:01;22.40;99.90
47660;DHT22;33403;43.608;1.458;2023-09-12T00:20:27;22.40;99.90
47660;DHT22;33403;43.608;1.458;2023-09-12T00:22:52;22.40;99.90
47660;DHT22;33403;43.608;1.458;2023-09-12T00:25:20;22.30;99.90
47660;DHT22;33403;43.608;1.458;2023-09-12T00:27:46;22.30;99.90
47660;DHT22;33403;43.608;1.458;2023-09-12T00:30:13;22.30;99.90
47660;DHT22;33403;43.608;1.458;2023-09-12T00:32:39;22.30;99.90
47660;DHT22;33403;43.608;1.458;2023-09-12T00:35:05;22.40;99.90
47660;DHT22;33403;43.608;1.458;2023-09-12T00:37:31;22.40;99.90
47660;DHT22;33403;43.608;1.458;2023-09-12T00:39:56;22.40;99.90
47660;DHT22;33403;43.608;1.458;2023-09-12T00:42:25;22.40;99.90
47660;DHT22;33403;43.608;1.458;2023-09-12T00:44:51;22.40;99.90
47660;DHT22;33403;43.608;1.458;2023-09-12T00:47:17;22.40;99.90
47660;DHT22;33403;43.608;1.458;2023-09-12T00:49:43;22.50;99.90
47660;DHT22;33403;43.608;1.458;2023-09-12T00:52:10;22.60;99.90
47660;DHT22;33403;43.608;1.458;2023-09-12T00:54:36;22.50;99.90
47660;DHT22;33403;43.608;1.458;2023-09-12T00:57:02;22.50;99.90
47660;DHT22;33403;43.608;1.458;2023-09-12T00:59:28;22.50;99.90
47660;DHT22;33403;43.608;1.458;2023-09-12T01:01:53;22.50;99.90
47660;DHT22;33403;43.608;1.458;2023-09-12T01:04:20;22.50;99.90
47660;DHT22;33403;43.608;1.458;2023-09-12T01:06:46;22.40;99.90
47660;DHT22;33403;43.608;1.458;2023-09-12T01:09:13;22.40;99.90
47660;DHT22;33403;43.608;1.458;2023-09-12T01:11:40;22.30;99.90
47660;DHT22;33403;43.608;1.458;2023-09-12T01:14:06;22.30;99.90
47660;DHT22;33403;43.608;1.458;2023-09-12T01:16:32;22.30;99.90
47660;DHT22;33403;43.608;1.458;2023-09-12T01:18:57;22.30;99.90
47660;DHT22;33403;43.608;1.458;2023-09-12T01:21:59;22.40;99.90
47660;DHT22;33403;43.608;1.458;2023-09-12T01:27:35;22.40;99.90
47660;DHT22;33403;43.608;1.458;2023-09-12T01:30:04;22.40;99.90
47660;DHT22;33403;43.608;1.458;2023-09-12T01:32:32;22.40;99.90
47660;DHT22;33403;43.608;1.458;2023-09-12T01:34:58;22.40;99.90
47660;DHT22;33403;43.608;1.458;2023-09-12T01:37:24;22.30;99.90
47660;DHT22;33403;43.608;1.458;2023-09-12T01:39:50;22.30;99.90
47660;DHT22;33403;43.608;1.458;2023-09-12T01:42:17;22.30;99.90
47660;DHT22;33403;43.608;1.458;2023-09-12T01:44:44;22.40;99.90
47660;DHT22;33403;43.608;1.458;2023-09-12T01:47:12;22.30;99.90
47660;DHT22;33403;43.608;1.458;2023-09-12T01:49:42;22.30;99.90
47660;DHT22;33403;43.608;1.458;2023-09-12T01:52:09;22.40;99.90
47660;DHT22;33403;43.608;1.458;2023-09-12T01:54:36;22.30;99.90
47660;DHT22;33403;43.608;1.458;2023-09-12T01:57:03;22.40;99.90
47660;DHT22;33403;43.608;1.458;2023-09-12T01:59:30;22.40;99.90
47660;DHT22;33403;43.608;1.458;2023-09-12T02:01:55;22.50;99.90
47660;DHT22;33403;43.608;1.458;2023-09-12T02:04:21;22.50;99.90
47660;DHT22;33403;43.608;1.458;2023-09-12T02:06:46;22.40;99.90
47660;DHT22;33403;43.608;1.458;2023-09-12T02:09:12;22.40;99.90
47660;DHT22;33403;43.608;1.458;2023-09-12T02:11:38;22.40;99.90
47660;DHT22;33403;43.608;1.458;2023-09-12T02:14:03;22.40;99.90
47660;DHT22;33403;43.608;1.458;2023-09-12T02:16:31;22.40;99.90
47660;DHT22;33403;43.608;1.458;2023-09-12T02:18:56;22.30;99.90
47660;DHT22;33403;43.608;1.458;2023-09-12T02:21:22;22.10;99.90
47660;DHT22;33403;43.608;1.458;2023-09-12T02:23:47;22.00;99.90
47660;DHT22;33403;43.608;1.458;2023-09-12T02:26:13;22.00;99.90
47660;DHT22;33403;43.608;1.458;2023-09-12T02:28:39;21.80;99.90
47660;DHT22;33403;43.608;1.458;2023-09-12T02:31:10;21.70;99.90
47660;DHT22;33403;43.608;1.458;2023-09-12T02:33:37;21.80;99.90
47660;DHT22;33403;43.608;1.458;2023-09-12T02:36:04;21.70;99.90
47660;DHT22;33403;43.608;1.458;2023-09-12T02:38:29;21.70;99.90
47660;DHT22;33403;43.608;1.458;2023-09-12T02:40:55;21.60;99.90
47660;DHT22;33403;43.608;1.458;2023-09-12T02:43:21;21.50;99.90
47660;DHT22;33403;43.608;1.458;2023-09-12T02:45:47;21.50;99.90
47660;DHT22;33403;43.608;1.458;2023-09-12T02:48:12;21.50;99.90
47660;DHT22;33403;43.608;1.458;2023-09-12T02:50:38;21.40;99.90
47660;DHT22;33403;43.608;1.458;2023-09-12T02:53:04;21.40;99.90
47660;DHT22;33403;43.608;1.458;2023-09-12T02:55:29;21.40;99.90
47660;DHT22;33403;43.608;1.458;2023-09-12T02:57:55;21.40;99.90
47660;DHT22;33403;43.608;1.458;2023-09-12T03:00:21;21.30;99.90
47660;DHT22;33403;43.608;1.458;2023-09-12T03:02:47;21.20;99.90
47660;DHT22;33403;43.608;1.458;2023-09-12T03:05:12;21.10;99.90
47660;DHT22;33403;43.608;1.458;2023-09-12T03:07:38;21.10;99.90
47660;DHT22;33403;43.608;1.458;2023-09-12T03:10:04;21.20;99.90
47660;DHT22;33403;43.608;1.458;2023-09-12T03:12:29;21.00;99.90
47660;DHT22;33403;43.608;1.458;2023-09-12T03:14:56;21.10;99.90
47660;DHT22;33403;43.608;1.458;2023-09-12T03:17:21;21.10;99.90
47660;DHT22;33403;43.608;1.458;2023-09-12T03:19:47;21.10;99.90
47660;DHT22;33403;43.608;1.458;2023-09-12T03:22:13;21.20;99.90
47660;DHT22;33403;43.608;1.458;2023-09-12T03:24:38;21.20;99.90
47660;DHT22;33403;43.608;1.458;2023-09-12T03:27:04;21.20;99.90
47660;DHT22;33403;43.608;1.458;2023-09-12T03:29:30;21.20;99.90
47660;DHT22;33403;43.608;1.458;2023-09-12T03:31:55;21.30;99.90
47660;DHT22;33403;43.608;1.458;2023-09-12T03:34:21;21.20;99.90
47660;DHT22;33403;43.608;1.458;2023-09-12T03:36:47;21.20;99.90
47660;DHT22;33403;43.608;1.458;2023-09-12T03:39:12;21.20;99.90
47660;DHT22;33403;43.608;1.458;2023-09-12T03:41:39;21.10;99.90
47660;DHT22;33403;43.608;1.458;2023-09-12T03:44:05;21.10;99.90
47660;DHT22;33403;43.608;1.458;2023-09-12T03:46:31;21.10;99.90
47660;DHT22;33403;43.608;1.458;2023-09-12T03:48:56;21.00;99.90
47660;DHT22;33403;43.608;1.458;2023-09-12T03:51:22;21.10;99.90
47660;DHT22;33403;43.608;1.458;2023-09-12T03:53:48;21.00;99.90
47660;DHT22;33403;43.608;1.458;2023-09-12T03:56:15;21.00;99.90
47660;DHT22;33403;43.608;1.458;2023-09-12T03:58:41;20.90;99.90
47660;DHT22;33403;43.608;1.458;2023-09-12T04:01:07;20.90;99.90
47660;DHT22;33403;43.608;1.458;2023-09-12T04:03:32;20.90;99.90
47660;DHT22;33403;43.608;1.458;2023-09-12T04:05:58;20.90;99.90
47660;DHT22;33403;43.608;1.458;2023-09-12T04:08:24;20.90;99.90
47660;DHT22;33403;43.608;1.458;2023-09-12T04:10:49;20.80;99.90
47660;DHT22;33403;43.608;1.458;2023-09-12T04:13:15;20.70;99.90
47660;DHT22;33403;43.608;1.458;2023-09-12T04:15:41;20.70;99.90
47660;DHT22;33403;43.608;1.458;2023-09-12T04:18:06;20.70;99.90
47660;DHT22;33403;43.608;1.458;2023-09-12T04:20:32;20.80;99.90
47660;DHT22;33403;43.608;1.458;2023-09-12T04:23:01;20.80;99.90
47660;DHT22;33403;43.608;1.458;2023-09-12T04:25:28;20.80;99.90
47660;DHT22;33403;43.608;1.458;2023-09-12T04:27:53;20.80;99.90
47660;DHT22;33403;43.608;1.458;2023-09-12T04:30:19;20.80;99.90
47660;DHT22;33403;43.608;1.458;2023-09-12T04:32:45;20.80;99.90
47660;DHT22;33403;43.608;1.458;2023-09-12T04:35:10;20.80;99.90
47660;DHT22;33403;43.608;1.458;2023-09-12T04:37:36;20.80;99.90
47660;DHT22;33403;43.608;1.458;2023-09-12T04:40:03;20.80;99.90
47660;DHT22;33403;43.608;1.458;2023-09-12T04:42:31;20.80;99.90
47660;DHT22;33403;43.608;1.458;2023-09-12T04:44:57;20.90;99.90
47660;DHT22;33403;43.608;1.458;2023-09-12T04:47:22;20.80;99.90
47660;DHT22;33403;43.608;1.458;2023-09-12T04:49:48;20.90;99.90
47660;DHT22;33403;43.608;1.458;2023-09-12T04:52:14;20.80;99.90
47660;DHT22;33403;43.608;1.458;2023-09-12T04:54:40;20.80;99.90
47660;DHT22;33403;43.608;1.458;2023-09-12T04:57:07;20.80;99.90
47660;DHT22;33403;43.608;1.458;2023-09-12T04:59:32;20.90;99.90
47660;DHT22;33403;43.608;1.458;2023-09-12T05:01:58;20.90;99.90
47660;DHT22;33403;43.608;1.458;2023-09-12T05:04:24;20.80;99.90
47660;DHT22;33403;43.608;1.458;2023-09-12T05:06:49;20.80;99.90
47660;DHT22;33403;43.608;1.458;2023-09-12T05:09:15;20.80;99.90
47660;DHT22;33403;43.608;1.458;2023-09-12T05:11:41;20.90;99.90
47660;DHT22;33403;43.608;1.458;2023-09-12T05:14:06;20.90;99.90
47660;DHT22;33403;43.608;1.458;2023-09-12T05:16:32;20.90;99.90
47660;DHT22;33403;43.608;1.458;2023-09-12T05:18:57;20.90;99.90
47660;DHT22;33403;43.608;1.458;2023-09-12T05:21:23;20.90;99.90
47660;DHT22;33403;43.608;1.458;2023-09-12T05:23:49;20.90;99.90
47660;DHT22;33403;43.608;1.458;2023-09-12T05:26:14;20.90;99.90
47660;DHT22;33403;43.608;1.458;2023-09-12T05:28:40;20.90;99.90
47660;DHT22;33403;43.608;1.458;2023-09-12T05:31:06;20.80;99.90
47660;DHT22;33403;43.608;1.458;2023-09-12T05:33:31;20.90;99.90
47660;DHT22;33403;43.608;1.458;2023-09-12T05:35:57;20.90;99.90
47660;DHT22;33403;43.608;1.458;2023-09-12T05:38:23;20.90;99.90
47660;DHT22;33403;43.608;1.458;2023-09-12T05:40:49;20.90;99.90
47660;DHT22;33403;43.608;1.458;2023-09-12T05:43:18;20.90;99.90
47660;DHT22;33403;43.608;1.458;2023-09-12T05:45:44;20.90;99.90
47660;DHT22;33403;43.608;1.458;2023-09-12T05:48:09;20.90;99.90
47660;DHT22;33403;43.608;1.458;2023-09-12T05:50:36;20.80;99.90
47660;DHT22;33403;43.608;1.458;2023-09-12T05:53:02;20.80;99.90
47660;DHT22;33403;43.608;1.458;2023-09-12T05:55:28;20.80;99.90
47660;DHT22;33403;43.608;1.458;2023-09-12T05:57:54;20.80;99.90
47660;DHT22;33403;43.608;1.458;2023-09-12T06:00:20;20.90;99.90
47660;DHT22;33403;43.608;1.458;2023-09-12T06:02:47;20.80;99.90
47660;DHT22;33403;43.608;1.458;2023-09-12T06:05:13;20.80;99.90
47660;DHT22;33403;43.608;1.458;2023-09-12T06:07:39;20.90;99.90
47660;DHT22;33403;43.608;1.458;2023-09-12T06:10:06;20.90;99.90
47660;DHT22;33403;43.608;1.458;2023-09-12T06:12:32;20.90;99.90
47660;DHT22;33403;43.608;1.458;2023-09-12T06:14:59;20.90;99.90
47660;DHT22;33403;43.608;1.458;2023-09-12T06:17:24;20.90;99.90
47660;DHT22;33403;43.608;1.458;2023-09-12T06:19:50;21.10;99.90
47660;DHT22;33403;43.608;1.458;2023-09-12T06:22:17;21.00;99.90
47660;DHT22;33403;43.608;1.458;2023-09-12T06:24:43;20.90;99.90
47660;DHT22;33403;43.608;1.458;2023-09-12T06:27:09;20.90;99.90
47660;DHT22;33403;43.608;1.458;2023-09-12T06:29:37;20.90;99.90
47660;DHT22;33403;43.608;1.458;2023-09-12T06:32:03;21.00;99.90
47660;DHT22;33403;43.608;1.458;2023-09-12T06:34:29;21.00;99.90
47660;DHT22;33403;43.608;1.458;2023-09-12T06:36:55;21.00;99.90
47660;DHT22;33403;43.608;1.458;2023-09-12T06:39:20;20.90;99.90
47660;DHT22;33403;43.608;1.458;2023-09-12T06:41:46;21.00;99.90
47660;DHT22;33403;43.608;1.458;2023-09-12T06:44:12;21.10;99.90
47660;DHT22;33403;43.608;1.458;2023-09-12T06:46:37;21.10;99.90
47660;DHT22;33403;43.608;1.458;2023-09-12T06:49:03;21.10;99.90
47660;DHT22;33403;43.608;1.458;2023-09-12T06:51:29;21.20;99.90
47660;DHT22;33403;43.608;1.458;2023-09-12T06:53:55;21.30;99.90
47660;DHT22;33403;43.608;1.458;2023-09-12T06:56:21;21.30;99.90
47660;DHT22;33403;43.608;1.458;2023-09-12T06:58:50;21.30;99.90
47660;DHT22;33403;43.608;1.458;2023-09-12T07:01:18;21.30;99.90
47660;DHT22;33403;43.608;1.458;2023-09-12T07:03:44;21.30;99.90
47660;DHT22;33403;43.608;1.458;2023-09-12T07:06:09;21.30;99.90
47660;DHT22;33403;43.608;1.458;2023-09-12T07:08:35;21.30;99.90
47660;DHT22;33403;43.608;1.458;2023-09-12T07:11:01;21.30;99.90
47660;DHT22;33403;43.608;1.458;2023-09-12T07:13:32;21.30;99.90
47660;DHT22;33403;43.608;1.458;2023-09-12T07:15:58;21.30;99.90
47660;DHT22;33403;43.608;1.458;2023-09-12T07:18:23;21.30;99.90
47660;DHT22;33403;43.608;1.458;2023-09-12T07:20:59;21.30;99.90
47660;DHT22;33403;43.608;1.458;2023-09-12T07:23:25;21.40;99.90
47660;DHT22;33403;43.608;1.458;2023-09-12T07:25:51;21.60;99.90
47660;DHT22;33403;43.608;1.458;2023-09-12T07:28:18;21.70;99.90
47660;DHT22;33403;43.608;1.458;2023-09-12T07:30:46;21.70;99.90
47660;DHT22;33403;43.608;1.458;2023-09-12T07:33:12;21.70;99.90
47660;DHT22;33403;43.608;1.458;2023-09-12T07:35:37;21.70;99.90
47660;DHT22;33403;43.608;1.458;2023-09-12T07:38:03;21.70;99.90
47660;DHT22;33403;43.608;1.458;2023-09-12T07:40:29;21.80;99.90
47660;DHT22;33403;43.608;1.458;2023-09-12T07:42:55;21.90;99.90
47660;DHT22;33403;43.608;1.458;2023-09-12T07:45:21;22.00;99.90
47660;DHT22;33403;43.608;1.458;2023-09-12T07:47:47;22.00;99.90
47660;DHT22;33403;43.608;1.458;2023-09-12T07:50:12;22.00;99.90
47660;DHT22;33403;43.608;1.458;2023-09-12T07:52:38;21.90;99.90
47660;DHT22;33403;43.608;1.458;2023-09-12T07:55:04;22.00;99.90
47660;DHT22;33403;43.608;1.458;2023-09-12T07:57:30;22.00;99.90
47660;DHT22;33403;43.608;1.458;2023-09-12T07:59:56;22.00;99.90
47660;DHT22;33403;43.608;1.458;2023-09-12T08:02:22;22.10;99.90
47660;DHT22;33403;43.608;1.458;2023-09-12T08:04:51;22.00;99.90
47660;DHT22;33403;43.608;1.458;2023-09-12T08:07:19;21.90;99.90
47660;DHT22;33403;43.608;1.458;2023-09-12T08:10:11;22.00;99.90
47660;DHT22;33403;43.608;1.458;2023-09-12T08:12:37;21.90;99.90
47660;DHT22;33403;43.608;1.458;2023-09-12T08:15:07;22.00;99.90
47660;DHT22;33403;43.608;1.458;2023-09-12T08:17:33;22.00;99.90
47660;DHT22;33403;43.608;1.458;2023-09-12T08:19:59;22.00;99.90
47660;DHT22;33403;43.608;1.458;2023-09-12T08:22:24;22.00;99.90
47660;DHT22;33403;43.608;1.458;2023-09-12T08:24:50;21.90;99.90
47660;DHT22;33403;43.608;1.458;2023-09-12T08:27:15;21.90;99.90
47660;DHT22;33403;43.608;1.458;2023-09-12T08:29:41;21.90;99.90
47660;DHT22;33403;43.608;1.458;2023-09-12T08:32:09;21.90;99.90
47660;DHT22;33403;43.608;1.458;2023-09-12T08:34:34;22.00;99.90
47660;DHT22;33403;43.608;1.458;2023-09-12T08:37:00;21.90;99.90
47660;DHT22;33403;43.608;1.458;2023-09-12T08:39:27;21.90;99.90
47660;DHT22;33403;43.608;1.458;2023-09-12T08:41:53;21.90;99.90
47660;DHT22;33403;43.608;1.458;2023-09-12T08:44:20;22.00;99.90
47660;DHT22;33403;43.608;1.458;2023-09-12T08:46:46;22.00;99.90
47660;DHT22;33403;43.608;1.458;2023-09-12T08:49:12;22.10;99.90
47660;DHT22;33403;43.608;1.458;2023-09-12T08:51:41;22.10;99.90
47660;DHT22;33403;43.608;1.458;2023-09-12T08:54:07;22.00;99.90
47660;DHT22;33403;43.608;1.458;2023-09-12T08:56:36;22.10;99.90
47660;DHT22;33403;43.608;1.458;2023-09-12T08:59:04;22.10;99.90
47660;DHT22;33403;43.608;1.458;2023-09-12T09:01:34;22.10;99.90
47660;DHT22;33403;43.608;1.458;2023-09-12T09:04:02;22.20;99.90
47660;DHT22;33403;43.608;1.458;2023-09-12T09:06:30;22.20;99.90
47660;DHT22;33403;43.608;1.458;2023-09-12T09:08:58;22.10;99.90
47660;DHT22;33403;43.608;1.458;2023-09-12T09:11:25;22.10;99.90
47660;DHT22;33403;43.608;1.458;2023-09-12T09:13:53;22.10;99.90
47660;DHT22;33403;43.608;1.458;2023-09-12T09:16:19;22.10;99.90
47660;DHT22;33403;43.608;1.458;2023-09-12T09:19:04;22.20;99.90
47660;DHT22;33403;43.608;1.458;2023-09-12T09:21:35;22.20;99.90
47660;DHT22;33403;43.608;1.458;2023-09-12T09:24:04;22.30;99.90
47660;DHT22;33403;43.608;1.458;2023-09-12T09:26:49;22.20;99.90
47660;DHT22;33403;43.608;1.458;2023-09-12T09:29:24;22.20;99.90
47660;DHT22;33403;43.608;1.458;2023-09-12T09:31:51;22.30;99.90
47660;DHT22;33403;43.608;1.458;2023-09-12T09:34:18;22.40;99.90
47660;DHT22;33403;43.608;1.458;2023-09-12T09:36:50;22.40;99.90
47660;DHT22;33403;43.608;1.458;2023-09-12T09:39:21;22.40;99.90
47660;DHT22;33403;43.608;1.458;2023-09-12T09:41:49;22.40;99.90
47660;DHT22;33403;43.608;1.458;2023-09-12T09:44:15;22.60;99.90
47660;DHT22;33403;43.608;1.458;2023-09-12T09:46:44;22.50;99.90
47660;DHT22;33403;43.608;1.458;2023-09-12T09:49:11;22.40;99.90
47660;DHT22;33403;43.608;1.458;2023-09-12T09:51:44;22.40;99.90
47660;DHT22;33403;43.608;1.458;2023-09-12T09:54:10;22.50;99.90
47660;DHT22;33403;43.608;1.458;2023-09-12T09:56:46;22.40;99.90
47660;DHT22;33403;43.608;1.458;2023-09-12T09:59:15;22.40;99.90
47660;DHT22;33403;43.608;1.458;2023-09-12T10:01:41;22.40;99.90
47660;DHT22;33403;43.608;1.458;2023-09-12T10:04:08;22.30;99.90
47660;DHT22;33403;43.608;1.458;2023-09-12T10:06:36;22.30;99.90
47660;DHT22;33403;43.608;1.458;2023-09-12T10:09:07;22.30;99.90
47660;DHT22;33403;43.608;1.458;2023-09-12T10:11:35;22.30;99.90
47660;DHT22;33403;43.608;1.458;2023-09-12T10:14:03;22.20;99.90
47660;DHT22;33403;43.608;1.458;2023-09-12T10:16:30;22.10;99.90
47660;DHT22;33403;43.608;1.458;2023-09-12T10:19:23;22.00;99.90
47660;DHT22;33403;43.608;1.458;2023-09-12T10:24:21;21.90;99.90
47660;DHT22;33403;43.608;1.458;2023-09-12T10:26:50;21.90;99.90
47660;DHT22;33403;43.608;1.458;2023-09-12T10:29:17;21.80;99.90
47660;DHT22;33403;43.608;1.458;2023-09-12T10:31:43;21.80;99.90
47660;DHT22;33403;43.608;1.458;2023-09-12T10:34:12;21.80;99.90
47660;DHT22;33403;43.608;1.458;2023-09-12T10:36:40;21.80;99.90
47660;DHT22;33403;43.608;1.458;2023-09-12T10:39:07;21.90;99.90
47660;DHT22;33403;43.608;1.458;2023-09-12T10:41:37;21.90;99.90
47660;DHT22;33403;43.608;1.458;2023-09-12T10:44:09;21.80;99.90
47660;DHT22;33403;43.608;1.458;2023-09-12T10:46:38;21.80;99.90
47660;DHT22;33403;43.608;1.458;2023-09-12T10:49:09;21.80;99.90
47660;DHT22;33403;43.608;1.458;2023-09-12T10:54:07;21.80;99.90
47660;DHT22;33403;43.608;1.458;2023-09-12T10:56:36;21.80;99.90
47660;DHT22;33403;43.608;1.458;2023-09-12T11:01:33;22.00;99.90
47660;DHT22;33403;43.608;1.458;2023-09-12T11:04:32;22.00;99.90
47660;DHT22;33403;43.608;1.458;2023-09-12T11:06:54;22.10;99.90
47660;DHT22;33403;43.608;1.458;2023-09-12T11:09:24;22.10;99.90
47660;DHT22;33403;43.608;1.458;2023-09-12T11:11:57;22.20;99.90
47660;DHT22;33403;43.608;1.458;2023-09-12T11:14:23;22.20;99.90
47660;DHT22;33403;43.608;1.458;2023-09-12T11:19:48;22.20;99.90
47660;DHT22;33403;43.608;1.458;2023-09-12T11:22:36;22.20;99.90
47660;DHT22;33403;43.608;1.458;2023-09-12T11:25:05;22.20;99.90
47660;DHT22;33403;43.608;1.458;2023-09-12T11:28:04;22.20;99.90
47660;DHT22;33403;43.608;1.458;2023-09-12T11:30:30;22.20;99.90
47660;DHT22;33403;43.608;1.458;2023-09-12T11:33:03;22.10;99.90
47660;DHT22;33403;43.608;1.458;2023-09-12T11:35:29;22.20;99.90
47660;DHT22;33403;43.608;1.458;2023-09-12T11:37:57;22.10;99.90
47660;DHT22;33403;43.608;1.458;2023-09-12T11:42:57;22.20;99.90
47660;DHT22;33403;43.608;1.458;2023-09-12T11:45:23;22.10;99.90
47660;DHT22;33403;43.608;1.458;2023-09-12T11:47:50;22.10;99.90
47660;DHT22;33403;43.608;1.458;2023-09-12T11:50:35;22.10;99.90
47660;DHT22;33403;43.608;1.458;2023-09-12T11:53:11;22.10;99.90
47660;DHT22;33403;43.608;1.458;2023-09-12T11:55:44;22.10;99.90
47660;DHT22;33403;43.608;1.458;2023-09-12T11:58:11;22.10;99.90
47660;DHT22;33403;43.608;1.458;2023-09-12T12:00:46;22.20;99.90
47660;DHT22;33403;43.608;1.458;2023-09-12T12:03:13;22.30;99.90
47660;DHT22;33403;43.608;1.458;2023-09-12T12:05:39;22.40;99.90
47660;DHT22;33403;43.608;1.458;2023-09-12T12:08:07;22.60;99.90
47660;DHT22;33403;43.608;1.458;2023-09-12T12:10:34;22.80;99.90
47660;DHT22;33403;43.608;1.458;2023-09-12T12:12:59;22.80;99.90
47660;DHT22;33403;43.608;1.458;2023-09-12T12:15:27;22.80;99.90
47660;DHT22;33403;43.608;1.458;2023-09-12T12:17:56;22.80;99.90
47660;DHT22;33403;43.608;1.458;2023-09-12T12:20:23;22.80;99.90
47660;DHT22;33403;43.608;1.458;2023-09-12T12:22:49;22.80;99.90
47660;DHT22;33403;43.608;1.458;2023-09-12T12:25:17;22.80;99.90
47660;DHT22;33403;43.608;1.458;2023-09-12T12:27:43;22.80;99.90
47660;DHT22;33403;43.608;1.458;2023-09-12T12:30:13;22.70;99.90
47660;DHT22;33403;43.608;1.458;2023-09-12T12:32:44;22.60;99.90
47660;DHT22;33403;43.608;1.458;2023-09-12T12:35:20;22.60;99.90
47660;DHT22;33403;43.608;1.458;2023-09-12T12:37:48;22.60;99.90
47660;DHT22;33403;43.608;1.458;2023-09-12T12:40:15;22.60;99.90
47660;DHT22;33403;43.608;1.458;2023-09-12T12:42:41;22.60;99.90
47660;DHT22;33403;43.608;1.458;2023-09-12T12:45:21;22.60;99.90
47660;DHT22;33403;43.608;1.458;2023-09-12T12:47:51;22.60;99.90
47660;DHT22;33403;43.608;1.458;2023-09-12T12:50:18;22.70;99.90
47660;DHT22;33403;43.608;1.458;2023-09-12T12:52:48;22.70;99.90
47660;DHT22;33403;43.608;1.458;2023-09-12T12:55:15;22.70;99.90
47660;DHT22;33403;43.608;1.458;2023-09-12T12:57:43;22.80;99.90
47660;DHT22;33403;43.608;1.458;2023-09-12T13:00:16;22.80;99.90
47660;DHT22;33403;43.608;1.458;2023-09-12T13:02:44;22.70;99.90
47660;DHT22;33403;43.608;1.458;2023-09-12T13:05:24;22.70;99.90
47660;DHT22;33403;43.608;1.458;2023-09-12T13:07:50;22.70;99.90
47660;DHT22;33403;43.608;1.458;2023-09-12T13:10:16;22.60;99.90
47660;DHT22;33403;43.608;1.458;2023-09-12T13:12:42;22.50;99.90
47660;DHT22;33403;43.608;1.458;2023-09-12T13:15:11;22.50;99.90
47660;DHT22;33403;43.608;1.458;2023-09-12T13:17:37;22.50;99.90
47660;DHT22;33403;43.608;1.458;2023-09-12T13:20:03;22.50;99.90
47660;DHT22;33403;43.608;1.458;2023-09-12T13:22:29;22.50;99.90
47660;DHT22;33403;43.608;1.458;2023-09-12T13:24:55;22.40;99.90
47660;DHT22;33403;43.608;1.458;2023-09-12T13:27:20;22.40;99.90
47660;DHT22;33403;43.608;1.458;2023-09-12T13:29:46;22.50;99.90
47660;DHT22;33403;43.608;1.458;2023-09-12T13:32:13;22.50;99.90
47660;DHT22;33403;43.608;1.458;2023-09-12T13:34:40;22.50;99.90
47660;DHT22;33403;43.608;1.458;2023-09-12T13:37:06;22.60;99.90
47660;DHT22;33403;43.608;1.458;2023-09-12T13:39:32;22.60;99.90
47660;DHT22;33403;43.608;1.458;2023-09-12T13:41:57;22.60;99.90
47660;DHT22;33403;43.608;1.458;2023-09-12T13:44:25;22.70;99.90
47660;DHT22;33403;43.608;1.458;2023-09-12T13:46:50;22.70;99.90
47660;DHT22;33403;43.608;1.458;2023-09-12T13:49:16;22.70;99.90
47660;DHT22;33403;43.608;1.458;2023-09-12T13:51:42;22.80;99.90
47660;DHT22;33403;43.608;1.458;2023-09-12T13:54:07;22.70;99.90
47660;DHT22;33403;43.608;1.458;2023-09-12T13:56:40;22.80;99.90
47660;DHT22;33403;43.608;1.458;2023-09-12T13:59:06;22.70;99.90
47660;DHT22;33403;43.608;1.458;2023-09-12T14:01:32;22.80;99.90
47660;DHT22;33403;43.608;1.458;2023-09-12T14:03:57;22.80;99.90
47660;DHT22;33403;43.608;1.458;2023-09-12T14:06:23;22.90;99.90
47660;DHT22;33403;43.608;1.458;2023-09-12T14:08:49;23.00;99.90
47660;DHT22;33403;43.608;1.458;2023-09-12T14:11:14;23.00;99.90
47660;DHT22;33403;43.608;1.458;2023-09-12T14:13:40;23.20;99.90
47660;DHT22;33403;43.608;1.458;2023-09-12T14:16:06;23.30;99.90
47660;DHT22;33403;43.608;1.458;2023-09-12T14:18:32;23.40;99.90
47660;DHT22;33403;43.608;1.458;2023-09-12T14:20:57;23.50;99.90
47660;DHT22;33403;43.608;1.458;2023-09-12T14:23:23;23.60;99.90
47660;DHT22;33403;43.608;1.458;2023-09-12T14:25:49;23.70;99.90
47660;DHT22;33403;43.608;1.458;2023-09-12T14:28:14;23.90;99.90
47660;DHT22;33403;43.608;1.458;2023-09-12T14:30:40;24.00;99.90
47660;DHT22;33403;43.608;1.458;2023-09-12T14:33:09;24.00;99.90
47660;DHT22;33403;43.608;1.458;2023-09-12T14:35:35;24.10;99.90
47660;DHT22;33403;43.608;1.458;2023-09-12T14:38:02;24.20;99.90
47660;DHT22;33403;43.608;1.458;2023-09-12T14:40:28;24.30;99.90
47660;DHT22;33403;43.608;1.458;2023-09-12T14:42:53;24.30;99.90
47660;DHT22;33403;43.608;1.458;2023-09-12T14:45:19;24.50;99.90
47660;DHT22;33403;43.608;1.458;2023-09-12T14:47:45;24.50;99.90
47660;DHT22;33403;43.608;1.458;2023-09-12T14:50:10;24.30;99.90
47660;DHT22;33403;43.608;1.458;2023-09-12T14:52:36;24.20;99.90
47660;DHT22;33403;43.608;1.458;2023-09-12T14:55:04;24.10;99.90
47660;DHT22;33403;43.608;1.458;2023-09-12T14:57:30;24.10;99.90
47660;DHT22;33403;43.608;1.458;2023-09-12T14:59:56;24.00;99.90
47660;DHT22;33403;43.608;1.458;2023-09-12T15:02:24;24.10;99.90
47660;DHT22;33403;43.608;1.458;2023-09-12T15:04:50;24.00;99.90
47660;DHT22;33403;43.608;1.458;2023-09-12T15:07:15;23.80;99.90
47660;DHT22;33403;43.608;1.458;2023-09-12T15:09:41;23.70;99.90
47660;DHT22;33403;43.608;1.458;2023-09-12T15:12:07;23.80;99.90
47660;DHT22;33403;43.608;1.458;2023-09-12T15:14:34;23.60;99.90
47660;DHT22;33403;43.608;1.458;2023-09-12T15:17:00;23.70;99.90
47660;DHT22;33403;43.608;1.458;2023-09-12T15:19:25;23.80;99.90
47660;DHT22;33403;43.608;1.458;2023-09-12T15:21:51;23.80;99.90
47660;DHT22;33403;43.608;1.458;2023-09-12T15:24:17;23.80;99.90
47660;DHT22;33403;43.608;1.458;2023-09-12T15:26:42;24.00;99.90
47660;DHT22;33403;43.608;1.458;2023-09-12T15:29:08;24.10;99.90
47660;DHT22;33403;43.608;1.458;2023-09-12T15:31:34;24.20;99.90
47660;DHT22;33403;43.608;1.458;2023-09-12T15:33:59;24.30;99.90
47660;DHT22;33403;43.608;1.458;2023-09-12T15:36:25;24.20;99.90
47660;DHT22;33403;43.608;1.458;2023-09-12T15:38:50;24.10;99.90
47660;DHT22;33403;43.608;1.458;2023-09-12T15:41:17;24.00;99.90
47660;DHT22;33403;43.608;1.458;2023-09-12T15:43:43;24.00;99.90
47660;DHT22;33403;43.608;1.458;2023-09-12T15:46:09;23.80;99.90